• Join FlightAware (Why Join?)
  • Login
  • US Flag 
06:12PM EST


 

Airport Tracker/Info


-or-


 

Live Flight TrackerFlight Track Log ✈ ADR705 ✈ 02-Mar-2014 ✈ LATI / TIA - LJLJ / LJU

Flight Track Log - Related Links

Times and Time Zones

All times are in EST time to prevent confusion due to time zone crossing. See the ADR705 flight status page for this flight to view local times or setup timezone preferences in your user account.

Time Position Orientation Groundspeed Altitude Reporting Facility
EST Latitude Longitude Course Direction KTS MPH feet Rate Location/Type
10:31AM 41.8687 19.2686 324° Northwest  Level Estimated
10:32AM 41.9442 19.1926 323° Northwest  Level Estimated
10:33AM 42.0197 19.1165 323° Northwest  Level Estimated
10:34AM 42.0951 19.0402 323° Northwest  Level Estimated
10:35AM 42.1704 18.9637 323° Northwest  Level Estimated
10:36AM 42.2457 18.8870 323° Northwest  Level Estimated
10:37AM 42.3209 18.8102 323° Northwest  Level Estimated
10:38AM 42.3961 18.7331 323° Northwest  Level Estimated
10:39AM 42.4712 18.6559 323° Northwest  Level Estimated
10:40AM 42.5463 18.5785 323° Northwest  Level Estimated
10:41AM 42.6213 18.5009 323° Northwest  Level Estimated
10:42AM 42.6963 18.4231 323° Northwest  Level Estimated
10:43AM 42.7713 18.3451 323° Northwest  Level Estimated
10:44AM 42.8461 18.2669 323° Northwest  Level Estimated
10:45AM 42.9209 18.1886 323° Northwest  Level Estimated
10:46AM 42.9957 18.1100 322° Northwest  Level Estimated
10:47AM 43.0704 18.0313 322° Northwest  Level Estimated
10:48AM 43.1451 17.9524 322° Northwest  Level Estimated
10:49AM 43.2197 17.8732 322° Northwest  Level Estimated
10:50AM 43.2942 17.7939 322° Northwest  Level Estimated
10:51AM 43.3687 17.7144 322° Northwest  Level Estimated
10:52AM 43.4431 17.6347 322° Northwest  Level Estimated
10:53AM 43.5175 17.5548 322° Northwest  Level Estimated
10:54AM 43.5919 17.4747 322° Northwest  Level Estimated
10:55AM 43.6661 17.3944 322° Northwest  Level Estimated
10:56AM 43.7403 17.3139 322° Northwest  Level Estimated
10:57AM 43.8145 17.2332 322° Northwest  Level Estimated
10:58AM 43.8886 17.1523 322° Northwest  Level Estimated
10:59AM 43.9626 17.0712 322° Northwest  Level Estimated
11:00AM 44.0366 16.9899 322° Northwest  Level Estimated
11:01AM 44.1106 16.9084 322° Northwest  Level Estimated
11:02AM 44.1844 16.8267 322° Northwest  Level Estimated
11:03AM 44.2582 16.7448 322° Northwest  Level Estimated
11:04AM 44.3320 16.6627 321° Northwest  Level Estimated
11:05AM 44.4057 16.5804 321° Northwest  Level Estimated
11:06AM 44.4793 16.4978 321° Northwest  Level Estimated
11:07AM 44.5529 16.4151 321° Northwest  Level Estimated
11:08AM 44.6264 16.3321 321° Northwest  Level Estimated
11:09AM 44.6999 16.2490 321° Northwest  Level Estimated
11:10AM 44.7733 16.1656 321° Northwest  Level Estimated
11:11AM 44.8466 16.0820 321° Northwest  Level Estimated
11:12AM 44.9199 15.9982 321° Northwest  Level Estimated
11:13AM 44.9931 15.9142 321° Northwest  Level Estimated
11:14AM 45.0662 15.8300 321° Northwest  Level Estimated
11:15AM 45.1393 15.7456 321° Northwest  Level Estimated
11:16AM 45.2123 15.6609 321° Northwest  Level Estimated
11:17AM 45.2853 15.5760 321° Northwest  Level Estimated
11:18AM 45.3582 15.4909 321° Northwest  Level Estimated
11:19AM 45.4310 15.4056 321° Northwest  Level Estimated
11:20AM 45.5038 15.3201 321° Northwest  Level Estimated
11:21AM 45.5765 15.2343 320° Northwest  Level Estimated
11:22AM 45.6492 15.1483 320° Northwest  Level Estimated
11:23AM 45.7217 15.0621 320° Northwest  Level Estimated
11:24AM 45.7943 14.9757 320° Northwest  Level Estimated
11:25AM 45.8667 14.8891 320° Northwest  Level Estimated
11:26AM 45.9391 14.8022 320° Northwest  Level Estimated
11:27AM 46.0114 14.7151 320° Northwest  Level Estimated
11:28AM 46.0836 14.6278 320° Northwest  Level Estimated
11:29AM 46.1558 14.5402 320° Northwest  Level Estimated
11:30AM 46.2237 14.4576 320° Northwest  Level Estimated
11:31AM 46.2237 14.4576 North  Level Estimated
11:32AM 46.2237 14.4576 North  Level Estimated
11:33AM 46.2237 14.4576 North  Level Estimated
11:34AM 46.2237 14.4576 North  Level Estimated
11:35AM 46.2237 14.4576 North  Level Estimated
11:36AM 46.2237 14.4576 North  Level Estimated